createdAt,value
2018-07-31T00:01:05.554Z,6.10
2018-07-31T00:03:34.436Z,5.97
2018-07-31T00:06:03.186Z,6.07
2018-07-31T00:08:31.991Z,6.23
2018-07-31T00:11:00.798Z,6.13
2018-07-31T00:13:29.591Z,6.30
2018-07-31T00:15:58.398Z,5.80
2018-07-31T00:18:27.213Z,6.43
2018-07-31T00:20:56.015Z,6.27
2018-07-31T00:23:24.818Z,6.17
2018-07-31T00:25:53.618Z,6.30
2018-07-31T00:28:22.419Z,5.93
2018-07-31T00:30:51.230Z,6.60
2018-07-31T00:33:20.030Z,6.20
2018-07-31T00:35:48.835Z,6.50
2018-07-31T00:38:17.682Z,6.47
2018-07-31T00:40:46.482Z,6.37
2018-07-31T00:43:15.366Z,6.70
2018-07-31T00:45:44.175Z,6.37
2018-07-31T00:48:12.990Z,6.33
2018-07-31T00:50:41.802Z,6.17
2018-07-31T00:53:10.599Z,6.47
2018-07-31T00:55:39.431Z,6.47
2018-07-31T00:58:08.242Z,6.73
2018-07-31T01:00:37.071Z,6.40
2018-07-31T01:03:06.033Z,6.10
2018-07-31T01:05:34.954Z,6.50
2018-07-31T01:08:03.774Z,6.20
2018-07-31T01:10:32.574Z,6.87
2018-07-31T01:13:01.390Z,6.50
2018-07-31T01:15:30.186Z,6.30
2018-07-31T01:17:59.005Z,6.33
2018-07-31T01:20:27.798Z,6.57
2018-07-31T01:22:56.611Z,6.00
2018-07-31T01:25:25.567Z,6.73
2018-07-31T01:27:54.373Z,6.37
2018-07-31T01:30:23.243Z,6.40
2018-07-31T01:32:52.049Z,6.60
2018-07-31T01:35:20.846Z,6.43
2018-07-31T01:37:49.658Z,7.27
2018-07-31T01:40:19.478Z,7.50
2018-07-31T01:42:48.286Z,6.80
2018-07-31T01:45:17.084Z,6.67
2018-07-31T01:47:47.879Z,7.40
2018-07-31T01:50:17.020Z,7.10
2018-07-31T01:52:45.826Z,7.40
2018-07-31T01:55:14.626Z,7.30
2018-07-31T01:57:43.590Z,7.10
2018-07-31T02:00:12.414Z,6.93
2018-07-31T02:02:41.231Z,7.20
2018-07-31T02:05:10.039Z,7.73
2018-07-31T02:07:38.842Z,7.63
2018-07-31T02:10:07.655Z,7.70
2018-07-31T02:12:36.472Z,7.40
2018-07-31T02:15:05.868Z,7.20
2018-07-31T02:17:34.683Z,6.87
2018-07-31T02:20:03.501Z,7.50
2018-07-31T02:22:32.306Z,7.57
2018-07-31T02:25:01.114Z,7.73
2018-07-31T02:27:30.167Z,7.97
2018-07-31T02:30:04.275Z,8.60
2018-07-31T02:32:33.204Z,8.00
2018-07-31T02:35:02.003Z,7.87
2018-07-31T02:37:30.810Z,7.87
2018-07-31T02:39:59.618Z,7.70
2018-07-31T02:42:28.458Z,8.13
2018-07-31T02:44:57.288Z,9.37
2018-07-31T02:47:26.117Z,8.73
2018-07-31T02:49:54.924Z,8.70
2018-07-31T02:52:23.747Z,8.57
2018-07-31T02:54:52.562Z,8.97
2018-07-31T02:57:21.377Z,8.50
2018-07-31T02:59:50.181Z,9.17
2018-07-31T03:02:18.984Z,8.47
2018-07-31T03:04:47.800Z,9.03
2018-07-31T03:07:16.596Z,8.40
2018-07-31T03:09:45.402Z,8.50
2018-07-31T03:12:14.203Z,9.03
2018-07-31T03:14:43.019Z,8.03
2018-07-31T03:17:11.819Z,8.67
2018-07-31T03:19:40.627Z,8.63
2018-07-31T03:22:09.415Z,8.60
2018-07-31T03:24:38.239Z,9.00
2018-07-31T03:27:07.034Z,8.90
2018-07-31T03:29:35.911Z,9.17
2018-07-31T03:32:04.703Z,8.90
2018-07-31T03:34:33.498Z,8.90
2018-07-31T03:37:02.294Z,9.17
2018-07-31T03:39:31.103Z,9.03
2018-07-31T03:41:59.904Z,9.57
2018-07-31T03:44:28.526Z,9.03
2018-07-31T03:46:57.242Z,8.93
2018-07-31T03:49:26.042Z,9.13
2018-07-31T03:51:54.850Z,10.80
2018-07-31T03:54:23.654Z,9.60
2018-07-31T03:56:52.455Z,9.17
2018-07-31T03:59:21.255Z,8.93
2018-07-31T04:01:50.055Z,9.13
2018-07-31T04:04:18.865Z,8.53
2018-07-31T04:06:47.666Z,9.50
2018-07-31T04:09:16.478Z,9.47
2018-07-31T04:11:45.282Z,8.97
2018-07-31T04:14:14.090Z,8.67
2018-07-31T04:16:42.918Z,9.07
2018-07-31T04:19:11.734Z,9.30
2018-07-31T04:21:40.550Z,9.70
2018-07-31T04:24:09.386Z,9.43
2018-07-31T04:26:38.202Z,9.30
2018-07-31T04:29:07.006Z,9.30
2018-07-31T04:31:35.828Z,9.27
2018-07-31T04:34:04.638Z,9.23
2018-07-31T04:36:33.458Z,8.67
2018-07-31T04:39:02.254Z,8.20
2018-07-31T04:41:31.069Z,9.20
2018-07-31T04:43:59.877Z,9.03
2018-07-31T04:46:28.687Z,8.80
2018-07-31T04:48:57.495Z,9.27
2018-07-31T04:51:26.302Z,8.50
2018-07-31T04:53:55.117Z,9.03
2018-07-31T04:56:23.930Z,9.03
2018-07-31T04:58:52.734Z,9.43
2018-07-31T05:01:21.555Z,10.13
2018-07-31T05:03:50.366Z,8.97
2018-07-31T05:06:19.243Z,9.20
2018-07-31T05:08:48.046Z,9.50
2018-07-31T05:11:16.866Z,9.27
2018-07-31T05:13:45.888Z,9.97
2018-07-31T05:16:14.719Z,9.70
2018-07-31T05:18:43.522Z,9.07
2018-07-31T05:21:12.349Z,10.00
2018-07-31T05:23:41.165Z,9.23
2018-07-31T05:26:09.979Z,9.70
2018-07-31T05:28:38.802Z,10.23
2018-07-31T05:31:07.722Z,11.00
2018-07-31T05:33:36.763Z,10.20
2018-07-31T05:36:05.825Z,9.73
2018-07-31T05:38:34.794Z,9.97
2018-07-31T05:41:03.806Z,9.97
2018-07-31T05:43:32.623Z,9.57
2018-07-31T05:46:01.815Z,9.53
2018-07-31T05:48:30.622Z,9.63
2018-07-31T05:50:59.434Z,9.40
2018-07-31T05:53:28.257Z,9.17
2018-07-31T05:55:57.079Z,9.40
2018-07-31T05:58:26.023Z,8.53
2018-07-31T06:00:54.822Z,8.53
2018-07-31T06:03:23.635Z,8.90
2018-07-31T06:05:52.429Z,8.73
2018-07-31T06:08:21.568Z,8.70
2018-07-31T06:10:50.362Z,8.00
2018-07-31T06:13:19.172Z,8.30
2018-07-31T06:15:47.979Z,9.13
2018-07-31T06:18:16.838Z,8.77
2018-07-31T06:20:45.651Z,8.37
2018-07-31T06:23:14.466Z,9.50
2018-07-31T06:25:43.336Z,8.33
2018-07-31T06:28:12.108Z,8.73
2018-07-31T06:30:40.902Z,8.67
2018-07-31T06:33:09.711Z,8.90
2018-07-31T06:35:38.559Z,9.23
2018-07-31T06:38:07.450Z,9.53
2018-07-31T06:40:36.530Z,8.90
2018-07-31T06:43:05.341Z,9.10
2018-07-31T06:45:34.147Z,9.00
2018-07-31T06:48:03.115Z,8.77
2018-07-31T06:50:31.930Z,8.73
2018-07-31T06:53:00.951Z,8.50
2018-07-31T06:55:29.727Z,8.97
2018-07-31T06:57:58.534Z,9.37
2018-07-31T07:00:27.347Z,9.17
2018-07-31T07:02:56.158Z,8.37
2018-07-31T07:05:25.119Z,9.13
2018-07-31T07:07:53.910Z,9.07
2018-07-31T07:10:22.726Z,8.67
2018-07-31T07:12:51.578Z,8.53
2018-07-31T07:15:20.427Z,8.43
2018-07-31T07:17:49.986Z,8.90
2018-07-31T07:20:18.803Z,8.53
2018-07-31T07:22:47.667Z,8.87
2018-07-31T07:25:16.491Z,9.30
2018-07-31T07:27:45.303Z,8.80
2018-07-31T07:30:14.114Z,8.90
2018-07-31T07:32:43.019Z,9.37
2018-07-31T07:35:11.839Z,9.20
2018-07-31T07:37:40.648Z,9.07
2018-07-31T07:40:09.479Z,8.50
2018-07-31T07:42:38.263Z,9.63
2018-07-31T07:45:07.079Z,8.80
2018-07-31T07:47:35.870Z,9.53
2018-07-31T07:50:04.982Z,9.90
2018-07-31T07:52:33.787Z,9.43
2018-07-31T07:55:02.595Z,8.97
2018-07-31T07:57:31.447Z,9.40
2018-07-31T08:00:00.263Z,10.13
2018-07-31T08:02:29.818Z,9.33
2018-07-31T08:04:58.647Z,9.47
2018-07-31T08:07:27.266Z,10.00
2018-07-31T08:09:55.955Z,9.40
2018-07-31T08:12:24.783Z,10.00
2018-07-31T08:14:53.604Z,9.20
2018-07-31T08:17:22.603Z,9.43
2018-07-31T08:19:51.558Z,8.57
2018-07-31T08:22:20.331Z,9.43
2018-07-31T08:24:49.131Z,9.60
2018-07-31T08:27:17.977Z,9.13
2018-07-31T08:29:46.886Z,9.37
2018-07-31T08:32:15.714Z,9.70
2018-07-31T08:34:44.538Z,8.87
2018-07-31T08:37:13.384Z,8.77
2018-07-31T08:39:42.369Z,9.03
2018-07-31T08:42:11.192Z,8.40
2018-07-31T08:44:39.980Z,8.70
2018-07-31T08:47:08.801Z,9.00
2018-07-31T08:49:37.602Z,8.70
2018-07-31T08:52:06.419Z,9.10
2018-07-31T08:54:35.165Z,8.77
2018-07-31T08:57:03.899Z,8.30
2018-07-31T08:59:32.646Z,9.17
2018-07-31T09:02:01.454Z,8.23
2018-07-31T09:04:30.266Z,8.57
2018-07-31T09:06:59.069Z,7.97
2018-07-31T09:09:27.881Z,9.23
2018-07-31T09:11:56.766Z,9.30
2018-07-31T09:14:25.662Z,8.60
2018-07-31T09:16:54.502Z,8.87
2018-07-31T09:19:23.369Z,8.60
2018-07-31T09:21:52.170Z,8.63
2018-07-31T09:24:21.016Z,8.60
2018-07-31T09:26:49.813Z,8.70
2018-07-31T09:29:18.700Z,10.57
2018-07-31T09:31:47.546Z,7.37
2018-07-31T09:34:16.378Z,7.90
2018-07-31T09:36:45.274Z,7.70
2018-07-31T09:39:14.161Z,13.17
2018-07-31T09:41:43.045Z,8.50
2018-07-31T09:44:11.945Z,8.33
2018-07-31T09:46:40.742Z,7.53
2018-07-31T09:49:09.553Z,7.27
2018-07-31T09:51:38.436Z,7.60
2018-07-31T09:54:07.902Z,7.23
2018-07-31T09:56:36.741Z,7.73
2018-07-31T09:59:06.032Z,7.10
2018-07-31T10:01:34.830Z,6.67
2018-07-31T10:04:03.637Z,7.63
2018-07-31T10:06:32.438Z,7.07
2018-07-31T10:09:01.246Z,6.80
2018-07-31T10:11:30.081Z,6.80
2018-07-31T10:13:58.882Z,6.53
2018-07-31T10:16:27.704Z,6.03
2018-07-31T10:18:56.530Z,7.30
2018-07-31T10:21:25.334Z,8.37
2018-07-31T10:23:54.156Z,7.60
2018-07-31T10:26:22.961Z,7.00
2018-07-31T10:28:51.767Z,6.70
2018-07-31T10:31:20.634Z,6.43
2018-07-31T10:33:49.445Z,6.40
2018-07-31T10:36:18.238Z,6.50
2018-07-31T10:38:47.084Z,6.93
2018-07-31T10:41:15.874Z,6.37
2018-07-31T10:43:44.719Z,6.60
2018-07-31T10:46:13.562Z,7.00
2018-07-31T10:48:42.365Z,6.97
2018-07-31T10:51:11.208Z,6.80
2018-07-31T10:53:40.042Z,6.73
2018-07-31T10:56:08.849Z,6.83
2018-07-31T10:58:37.780Z,5.83
2018-07-31T11:01:06.550Z,6.10
2018-07-31T11:03:35.358Z,6.27
2018-07-31T11:06:04.174Z,5.80
2018-07-31T11:08:32.974Z,5.07
2018-07-31T11:11:01.783Z,5.83
2018-07-31T11:13:30.602Z,5.33
2018-07-31T11:15:59.213Z,5.33
2018-07-31T11:18:28.559Z,5.83
2018-07-31T11:20:57.428Z,5.83
2018-07-31T11:23:26.180Z,5.40
2018-07-31T11:25:55.087Z,5.43
2018-07-31T11:28:24.155Z,6.03
2018-07-31T11:30:52.958Z,5.83
2018-07-31T11:33:21.757Z,6.13
2018-07-31T11:35:50.574Z,6.27
2018-07-31T11:38:19.385Z,5.80
2018-07-31T11:40:48.195Z,6.67
2018-07-31T11:43:17.010Z,5.83
2018-07-31T11:45:45.818Z,6.40
2018-07-31T11:48:14.624Z,6.43
2018-07-31T11:50:43.427Z,5.93
2018-07-31T11:53:12.355Z,6.23
2018-07-31T11:55:41.170Z,6.27
2018-07-31T11:58:10.051Z,6.30
2018-07-31T12:00:38.862Z,6.00
2018-07-31T12:03:08.694Z,6.17
2018-07-31T12:05:37.503Z,5.73
2018-07-31T12:08:06.302Z,6.50
2018-07-31T12:10:35.130Z,5.90
2018-07-31T12:13:03.991Z,6.07
2018-07-31T12:15:32.822Z,5.87
2018-07-31T12:18:01.635Z,6.20
2018-07-31T12:20:30.447Z,5.50
2018-07-31T12:22:59.346Z,6.17
2018-07-31T12:25:28.151Z,5.43
2018-07-31T12:27:56.958Z,5.80
2018-07-31T12:30:25.782Z,5.20
2018-07-31T12:32:54.654Z,5.77
2018-07-31T12:35:23.411Z,5.67
2018-07-31T12:37:52.215Z,5.60
2018-07-31T12:40:21.027Z,5.77
2018-07-31T12:42:49.827Z,5.80
2018-07-31T12:45:18.651Z,5.90
2018-07-31T12:47:47.454Z,6.23
2018-07-31T12:50:16.357Z,6.23
2018-07-31T12:52:45.142Z,5.90
2018-07-31T12:55:13.942Z,5.67
2018-07-31T12:57:42.752Z,5.73
2018-07-31T13:00:11.562Z,5.80
2018-07-31T13:02:40.682Z,6.00
2018-07-31T13:05:09.535Z,5.80
2018-07-31T13:07:38.239Z,6.00
2018-07-31T13:10:06.963Z,6.17
2018-07-31T13:12:35.770Z,6.50
2018-07-31T13:15:04.458Z,6.20
2018-07-31T13:17:33.239Z,5.97
2018-07-31T13:20:02.834Z,6.00
2018-07-31T13:22:31.666Z,6.17
2018-07-31T13:25:00.353Z,6.30
2018-07-31T13:27:29.883Z,6.13
2018-07-31T13:29:58.802Z,5.80
2018-07-31T13:32:27.656Z,6.00
2018-07-31T13:34:56.644Z,5.90
2018-07-31T13:37:25.542Z,6.40
2018-07-31T13:39:54.422Z,5.93
2018-07-31T13:42:23.356Z,6.20
2018-07-31T13:44:52.214Z,6.10
2018-07-31T13:47:21.026Z,5.73
2018-07-31T13:49:49.886Z,5.90
2018-07-31T13:52:18.710Z,5.63
2018-07-31T13:54:47.518Z,6.17
2018-07-31T13:57:16.363Z,5.90
2018-07-31T13:59:45.239Z,6.30
2018-07-31T14:02:14.052Z,6.00
2018-07-31T14:04:42.852Z,5.83
2018-07-31T14:07:11.718Z,5.57
2018-07-31T14:09:40.490Z,5.27
2018-07-31T14:12:09.298Z,5.80
2018-07-31T14:14:38.102Z,5.87
2018-07-31T14:17:06.930Z,5.30
2018-07-31T14:19:35.744Z,6.10
2018-07-31T14:22:04.531Z,6.07
2018-07-31T14:24:33.356Z,5.80
2018-07-31T14:27:02.142Z,5.83
2018-07-31T14:29:30.946Z,5.60
2018-07-31T14:31:59.755Z,6.20
2018-07-31T14:34:28.580Z,6.07
2018-07-31T14:36:57.660Z,5.30
2018-07-31T14:39:26.472Z,6.07
2018-07-31T14:42:00.836Z,6.10
2018-07-31T14:44:29.655Z,5.50
2018-07-31T14:46:58.449Z,5.67
2018-07-31T14:49:27.241Z,5.73
2018-07-31T14:51:56.114Z,5.97
2018-07-31T14:54:24.932Z,6.00
2018-07-31T14:56:53.739Z,5.90
2018-07-31T14:59:22.546Z,6.00
2018-07-31T15:01:51.159Z,5.47
2018-07-31T15:04:19.840Z,5.80
2018-07-31T15:06:48.647Z,5.60
2018-07-31T15:09:17.718Z,5.17
2018-07-31T15:11:47.963Z,5.60
2018-07-31T15:14:17.178Z,5.40
2018-07-31T15:16:45.984Z,5.37
2018-07-31T15:19:14.787Z,5.80
2018-07-31T15:21:43.583Z,5.30
2018-07-31T15:24:12.757Z,5.00
2018-07-31T15:26:41.521Z,5.73
2018-07-31T15:29:10.328Z,5.33
2018-07-31T15:31:39.124Z,5.10
2018-07-31T15:34:07.927Z,5.57
2018-07-31T15:36:36.713Z,5.33
2018-07-31T15:39:08.328Z,5.67
2018-07-31T15:41:37.127Z,5.37
2018-07-31T15:44:05.934Z,5.40
2018-07-31T15:46:34.723Z,5.20
2018-07-31T15:49:03.539Z,5.30
2018-07-31T15:51:32.662Z,5.23
2018-07-31T15:54:01.518Z,5.40
2018-07-31T15:56:30.263Z,5.57
2018-07-31T15:58:59.058Z,5.37
2018-07-31T16:01:29.346Z,5.57
2018-07-31T16:03:58.435Z,5.53
2018-07-31T16:06:27.246Z,5.10
2018-07-31T16:08:56.360Z,5.53
2018-07-31T16:11:25.129Z,5.50
2018-07-31T16:13:53.922Z,5.63
2018-07-31T16:16:22.710Z,5.17
2018-07-31T16:18:51.518Z,5.57
2018-07-31T16:21:20.330Z,5.67
2018-07-31T16:23:49.134Z,5.50
2018-07-31T16:26:17.946Z,5.57
2018-07-31T16:28:46.809Z,5.33
2018-07-31T16:31:15.610Z,5.30
2018-07-31T16:33:44.422Z,5.43
2018-07-31T16:36:13.290Z,4.97
2018-07-31T16:38:42.102Z,4.90
2018-07-31T16:41:10.923Z,5.60
2018-07-31T16:43:39.736Z,5.03
2018-07-31T16:46:08.581Z,5.50
2018-07-31T16:48:37.342Z,5.40
2018-07-31T16:51:06.154Z,5.37
2018-07-31T16:53:34.766Z,5.40
2018-07-31T16:56:03.446Z,4.93
2018-07-31T16:58:32.247Z,5.20
2018-07-31T17:01:01.061Z,5.37
2018-07-31T17:03:29.858Z,4.93
2018-07-31T17:05:58.675Z,5.83
2018-07-31T17:08:27.487Z,5.33
2018-07-31T17:10:56.299Z,5.20
2018-07-31T17:13:25.103Z,5.80
2018-07-31T17:15:53.943Z,5.10
2018-07-31T17:18:22.662Z,5.70
2018-07-31T17:20:51.338Z,4.80
2018-07-31T17:23:20.149Z,5.50
2018-07-31T17:25:48.946Z,5.70
2018-07-31T17:28:17.771Z,5.33
2018-07-31T17:30:46.574Z,5.30
2018-07-31T17:33:15.384Z,5.60
2018-07-31T17:35:44.186Z,5.57
2018-07-31T17:38:12.986Z,5.80
2018-07-31T17:40:42.103Z,5.60
2018-07-31T17:43:10.924Z,5.60
2018-07-31T17:45:39.761Z,5.63
2018-07-31T17:48:08.559Z,5.63
2018-07-31T17:50:37.367Z,5.30
2018-07-31T17:53:06.200Z,6.00
2018-07-31T17:55:34.999Z,5.80
2018-07-31T17:58:03.798Z,5.70
2018-07-31T18:00:32.612Z,5.50
2018-07-31T18:03:01.423Z,5.70
2018-07-31T18:05:30.231Z,6.03
2018-07-31T18:07:59.550Z,5.90
2018-07-31T18:10:28.363Z,5.80
2018-07-31T18:12:57.179Z,6.10
2018-07-31T18:15:26.019Z,6.07
2018-07-31T18:17:54.826Z,6.47
2018-07-31T18:20:23.700Z,6.00
2018-07-31T18:22:52.507Z,6.53
2018-07-31T18:25:21.313Z,5.67
2018-07-31T18:27:50.135Z,5.70
2018-07-31T18:30:18.930Z,6.60
2018-07-31T18:32:47.726Z,5.73
2018-07-31T18:35:16.614Z,6.03
2018-07-31T18:37:45.430Z,5.70
2018-07-31T18:40:14.227Z,5.53
2018-07-31T18:42:43.026Z,5.87
2018-07-31T18:45:11.878Z,5.80
2018-07-31T18:47:40.682Z,5.60
2018-07-31T18:50:09.498Z,5.60
2018-07-31T18:52:38.310Z,5.50
2018-07-31T18:55:06.918Z,5.13
2018-07-31T18:57:35.592Z,5.67
2018-07-31T19:00:05.150Z,5.30
2018-07-31T19:02:33.939Z,5.43
2018-07-31T19:05:02.743Z,5.17
2018-07-31T19:07:31.343Z,5.57
2018-07-31T19:10:00.036Z,5.27
2018-07-31T19:12:28.825Z,5.00
2018-07-31T19:14:57.626Z,5.00
2018-07-31T19:17:26.514Z,4.83
2018-07-31T19:19:55.318Z,4.80
2018-07-31T19:22:24.106Z,4.90
2018-07-31T19:24:52.946Z,4.40
2018-07-31T19:27:21.754Z,4.57
2018-07-31T19:29:50.570Z,4.37
2018-07-31T19:32:19.374Z,5.10
2018-07-31T19:34:48.184Z,4.67
2018-07-31T19:37:16.988Z,4.87
2018-07-31T19:39:45.784Z,4.53
2018-07-31T19:42:15.886Z,4.30
2018-07-31T19:44:44.641Z,4.80
2018-07-31T19:47:13.510Z,4.67
2018-07-31T19:49:42.306Z,4.90
2018-07-31T19:52:11.251Z,4.50
2018-07-31T19:54:39.994Z,4.60
2018-07-31T19:57:08.848Z,4.37
2018-07-31T19:59:38.143Z,4.13
2018-07-31T20:02:07.071Z,3.90
2018-07-31T20:04:35.871Z,4.10
2018-07-31T20:07:04.669Z,3.93
2018-07-31T20:09:33.462Z,4.10
2018-07-31T20:12:02.247Z,4.10
2018-07-31T20:14:31.051Z,3.60
2018-07-31T20:16:59.871Z,4.00
2018-07-31T20:19:28.682Z,4.27
2018-07-31T20:21:57.482Z,4.10
2018-07-31T20:24:26.287Z,3.93
2018-07-31T20:26:55.904Z,3.90
2018-07-31T20:29:24.621Z,3.80
2018-07-31T20:31:53.294Z,3.77
2018-07-31T20:34:22.110Z,3.77
2018-07-31T20:36:50.926Z,3.57
2018-07-31T20:39:19.745Z,3.40
2018-07-31T20:41:52.022Z,3.17
2018-07-31T20:44:21.923Z,3.30
2018-07-31T20:46:50.732Z,3.17
2018-07-31T20:49:19.535Z,3.57
2018-07-31T20:51:48.346Z,3.40
2018-07-31T20:54:17.147Z,3.43
2018-07-31T20:56:46.064Z,3.53
2018-07-31T20:59:14.941Z,3.90
2018-07-31T21:01:43.715Z,3.73
2018-07-31T21:04:12.518Z,3.50
2018-07-31T21:06:41.325Z,3.43
2018-07-31T21:09:11.813Z,3.23
2018-07-31T21:11:40.587Z,3.37
2018-07-31T21:14:09.386Z,3.37
2018-07-31T21:16:38.215Z,3.50
2018-07-31T21:19:07.439Z,3.40
2018-07-31T21:21:36.348Z,3.20
2018-07-31T21:24:05.875Z,3.70
2018-07-31T21:26:34.660Z,3.40
2018-07-31T21:29:03.456Z,3.77
2018-07-31T21:31:32.570Z,3.37
2018-07-31T21:34:01.416Z,3.57
2018-07-31T21:36:30.231Z,3.90
2018-07-31T21:38:59.027Z,3.37
2018-07-31T21:41:27.914Z,3.17
2018-07-31T21:43:56.646Z,3.50
2018-07-31T21:46:25.455Z,3.70
2018-07-31T21:48:54.268Z,3.60
2018-07-31T21:51:23.079Z,4.03
2018-07-31T21:53:52.447Z,3.33
2018-07-31T21:56:21.255Z,3.77
2018-07-31T21:58:50.067Z,3.67
2018-07-31T22:01:18.887Z,3.83
2018-07-31T22:03:47.707Z,3.90
2018-07-31T22:06:16.511Z,3.70
2018-07-31T22:08:45.331Z,3.20
2018-07-31T22:11:14.135Z,3.57
2018-07-31T22:13:42.963Z,3.70
2018-07-31T22:16:11.765Z,4.00
2018-07-31T22:18:40.579Z,4.20
2018-07-31T22:21:09.614Z,3.87
2018-07-31T22:23:38.435Z,3.73
2018-07-31T22:26:07.234Z,3.90
2018-07-31T22:28:36.075Z,4.03
2018-07-31T22:31:04.846Z,3.73
2018-07-31T22:33:33.663Z,4.00
2018-07-31T22:36:02.475Z,4.43
2018-07-31T22:38:31.286Z,4.23
2018-07-31T22:41:00.102Z,3.90
2018-07-31T22:43:28.923Z,3.90
2018-07-31T22:45:57.815Z,4.13
2018-07-31T22:48:26.626Z,4.30
2018-07-31T22:50:55.518Z,4.00
2018-07-31T22:53:24.326Z,4.70
2018-07-31T22:55:53.339Z,4.67
2018-07-31T22:58:22.158Z,4.47
2018-07-31T23:00:50.968Z,4.53
2018-07-31T23:03:19.770Z,4.77
2018-07-31T23:05:48.575Z,4.20
2018-07-31T23:08:17.386Z,4.00
2018-07-31T23:10:46.191Z,4.17
2018-07-31T23:13:14.994Z,4.50
2018-07-31T23:15:43.802Z,4.10
2018-07-31T23:18:12.611Z,4.20
2018-07-31T23:20:41.421Z,4.20
2018-07-31T23:23:10.214Z,4.10
2018-07-31T23:25:39.011Z,3.80
2018-07-31T23:28:07.801Z,4.00
2018-07-31T23:30:36.618Z,4.27
2018-07-31T23:33:05.419Z,3.67
2018-07-31T23:35:34.225Z,4.40
2018-07-31T23:38:03.014Z,4.50
2018-07-31T23:40:31.822Z,3.80
2018-07-31T23:43:00.626Z,4.17
2018-07-31T23:45:29.431Z,5.03
2018-07-31T23:47:58.220Z,4.47
2018-07-31T23:50:27.018Z,4.83
2018-07-31T23:52:55.882Z,4.50
2018-07-31T23:55:24.687Z,4.97
2018-07-31T23:57:53.480Z,4.60
